CheckWX is a tool to help pilots better visualize weather data.  It is not intended as a substitute for an official pre-flight weather briefing.

19:11:06 UTC

CYZE TAF
Gore Bay Manitoulin Airport
Gore Bay, Canada
TAF CYZE 221338Z 2214/2223 31005KT P6SM OVC030 TEMPO 2214/2223 P6SM -SN OVC020 BECMG 2219/2221 22008KT RMK FCST BASED ON AUTO OBS. NXT FCST BY 222000Z

Feb-22@
14:00 UTC

Feb-22 @ 14:00 UTC

Feb-22@
19:00 UTC

Feb-22 @ 19:00 UTC

TAF CYZE 221338Z 2214/2223 31005KT P6SM OVC030

Expired

Wind
  • 310° at 5 KTS
Cloud Levels
  • Overcast at 3,000' AGL

Feb-22@
14:00 UTC

Feb-22 @ 14:00 UTC

Feb-22@
23:00 UTC

Feb-22 @ 23:00 UTC

TEMPO 2214/2223 P6SM -SN OVC020

Temporary

TemporaryChanges expected for less than half the time period

Conditions
Light Snow
Cloud Levels
  • Overcast at 2,000' AGL

Feb-22@
19:00 UTC

Feb-22 @ 19:00 UTC

Feb-22@
23:00 UTC

Feb-22 @ 23:00 UTC

BECMG 2219/2221 22008KT RMK FCST BASED ON AUTO OBS. NXT FCST BY 222000Z

Becoming

BecomingConditions expected by Fri, Feb 22, 2019 @ 21:00 UTC

Wind
  • 220° at 8 KTS
Cloud Levels
  • Overcast at 3,000' AGL